Time;durP1;ratioP1;P1;durP2;ratioP2;P2;SDS_P1;SDS_P2;PMS_P1;PMS_P2;Temp;Humidity;BMP_temperature;BMP_pressure;BME280_temperature;BME280_humidity;BME280_pressure;Samples;Min_cycle;Max_cycle;Signal;HPM_P1;HPM_P2
2022/05/19 00:00:01;;;;;;;7.07;4.90;;;19.80;99.90;;;;;;5010431;28;20454;-88
2022/05/19 00:02:28;;;;;;;7.43;4.37;;;19.70;99.90;;;;;;5007325;28;20507;-88
2022/05/19 00:04:55;;;;;;;6.77;4.37;;;19.60;99.90;;;;;;5008901;28;20459;-89
2022/05/19 00:07:24;;;;;;;7.63;4.80;;;19.60;99.90;;;;;;5001132;28;20495;-89
2022/05/19 00:09:53;;;;;;;7.00;4.80;;;19.60;99.90;;;;;;5002424;28;20467;-88
2022/05/19 00:12:24;;;;;;;5.57;4.30;;;19.60;99.90;;;;;;5002075;28;20526;-88
2022/05/19 00:14:55;;;;;;;5.90;4.53;;;19.50;99.90;;;;;;5012593;28;20455;-88
2022/05/19 00:17:22;;;;;;;6.43;4.20;;;19.40;99.90;;;;;;5019731;28;20502;-87
2022/05/19 00:19:53;;;;;;;6.00;4.70;;;19.40;99.90;;;;;;5021349;28;20463;-87
2022/05/19 00:22:22;;;;;;;6.77;4.90;;;19.30;99.90;;;;;;5018216;28;20455;-87
2022/05/19 00:24:51;;;;;;;6.43;4.03;;;19.20;99.90;;;;;;5004296;28;20531;-87
2022/05/19 00:27:25;;;;;;;7.10;4.43;;;19.20;99.90;;;;;;5002566;28;20479;-87
2022/05/19 00:29:59;;;;;;;5.70;4.80;;;19.20;99.90;;;;;;5002151;28;20446;-88
2022/05/19 00:32:29;;;;;;;5.70;4.93;;;19.10;99.90;;;;;;5005243;28;20436;-90
2022/05/19 00:34:57;;;;;;;5.83;5.00;;;19.10;99.90;;;;;;5006502;28;20419;-88
2022/05/19 00:37:26;;;;;;;7.83;5.70;;;19.10;99.90;;;;;;5006831;28;20476;-88
2022/05/19 00:39:56;;;;;;;7.63;4.93;;;19.10;99.90;;;;;;5005700;28;20449;-88
2022/05/19 00:45:40;;;;;;;5.70;4.73;;;19.00;99.90;;;;;;5006288;28;20923;-88
2022/05/19 00:48:27;;;;;;;6.30;4.57;;;19.00;99.90;;;;;;5005385;28;20491;-87
2022/05/19 00:51:29;;;;;;;7.47;4.80;;;18.90;99.90;;;;;;5001780;28;20466;-88
2022/05/19 00:54:17;;;;;;;6.13;5.07;;;19.00;99.90;;;;;;5001161;28;20828;-88
2022/05/19 00:56:52;;;;;;;7.20;4.80;;;18.90;99.90;;;;;;5001823;28;20475;-87
2022/05/19 01:02:18;;;;;;;8.13;4.60;;;18.70;99.90;;;;;;4976025;28;20427;-88
2022/05/19 01:05:02;;;;;;;6.23;4.70;;;18.60;99.90;;;;;;5005692;28;20459;-89
2022/05/19 01:07:37;;;;;;;6.17;4.60;;;18.60;99.90;;;;;;5004666;28;20467;-88
2022/05/19 01:10:12;;;;;;;6.37;5.20;;;18.60;99.90;;;;;;5004409;28;20406;-88
2022/05/19 01:12:42;;;;;;;8.80;5.17;;;18.50;99.90;;;;;;5002171;28;20458;-88
2022/05/19 01:15:18;;;;;;;7.67;5.23;;;18.40;99.90;;;;;;5012293;28;20461;-86
2022/05/19 01:17:59;;;;;;;7.00;4.87;;;18.40;99.90;;;;;;5010348;28;20463;-89
2022/05/19 01:20:28;;;;;;;6.43;4.63;;;18.30;99.90;;;;;;5012465;28;20490;-87
2022/05/19 01:23:04;;;;;;;5.80;4.80;;;18.30;99.90;;;;;;5006498;28;20451;-87
2022/05/19 01:26:00;;;;;;;6.60;4.20;;;18.30;99.90;;;;;;5006843;28;20443;-87
2022/05/19 01:28:37;;;;;;;9.90;5.00;;;18.30;99.90;;;;;;5010637;28;20491;-88
2022/05/19 01:31:10;;;;;;;5.90;4.97;;;18.20;99.90;;;;;;5010982;28;20447;-88
2022/05/19 01:33:37;;;;;;;7.33;5.03;;;18.10;99.90;;;;;;5006314;28;20523;-87
2022/05/19 01:36:21;;;;;;;6.30;4.60;;;18.10;99.90;;;;;;5014429;28;20433;-87
2022/05/19 01:39:01;;;;;;;6.00;4.40;;;18.10;99.90;;;;;;5019797;28;20566;-87
2022/05/19 01:41:59;;;;;;;6.30;4.90;;;18.10;99.90;;;;;;5014710;28;20494;-88
2022/05/19 01:44:52;;;;;;;7.27;5.37;;;18.10;99.90;;;;;;5018375;28;20530;-87
2022/05/19 01:47:32;;;;;;;6.20;5.03;;;18.00;99.90;;;;;;5010476;28;20487;-88
2022/05/19 01:50:09;;;;;;;6.47;5.17;;;18.00;99.90;;;;;;5001908;28;20542;-87
2022/05/19 01:52:57;;;;;;;5.17;4.20;;;18.00;99.90;;;;;;5000451;28;20952;-88
2022/05/19 01:55:39;;;;;;;5.77;4.50;;;18.00;99.90;;;;;;5000071;28;20451;-88
2022/05/19 01:58:17;;;;;;;9.50;5.00;;;17.90;99.90;;;;;;4999659;28;20494;-88
2022/05/19 02:00:59;;;;;;;6.10;5.23;;;17.80;99.90;;;;;;4998873;28;20899;-87
2022/05/19 02:03:50;;;;;;;5.80;4.47;;;17.80;99.90;;;;;;4999118;28;20451;-88
2022/05/19 02:06:22;;;;;;;7.63;4.67;;;17.80;99.90;;;;;;5000102;28;20455;-88
2022/05/19 02:08:58;;;;;;;6.27;4.40;;;17.80;99.90;;;;;;4998835;28;20921;-88
2022/05/19 02:11:39;;;;;;;6.07;4.37;;;17.80;99.90;;;;;;5004143;28;20451;-88
2022/05/19 02:17:08;;;;;;;7.00;4.97;;;17.70;99.90;;;;;;4995259;28;20932;-88
2022/05/19 02:19:41;;;;;;;7.50;4.90;;;17.70;99.90;;;;;;4997890;28;20817;-88
2022/05/19 02:22:14;;;;;;;9.67;5.10;;;17.70;99.90;;;;;;5010619;28;20450;-88
2022/05/19 02:24:46;;;;;;;7.10;4.70;;;17.70;99.90;;;;;;5010311;28;20455;-88
2022/05/19 02:27:32;;;;;;;6.60;4.93;;;17.70;99.90;;;;;;5016696;28;20440;-88
2022/05/19 02:30:01;;;;;;;6.83;5.00;;;17.80;99.90;;;;;;5015337;28;20463;-87
2022/05/19 02:32:39;;;;;;;7.10;4.77;;;17.60;99.90;;;;;;5007055;28;20487;-88
2022/05/19 02:35:08;;;;;;;7.67;4.97;;;17.50;99.90;;;;;;5004531;28;20432;-88
2022/05/19 02:37:37;;;;;;;8.33;4.80;;;17.50;99.90;;;;;;5004456;28;20471;-87
2022/05/19 02:40:06;;;;;;;7.97;5.00;;;17.40;99.90;;;;;;5004874;28;20459;-87
2022/05/19 02:42:37;;;;;;;7.37;4.80;;;17.50;99.90;;;;;;5006016;28;20473;-88
2022/05/19 02:45:09;;;;;;;8.53;4.47;;;17.50;99.90;;;;;;5005667;28;20417;-87
2022/05/19 02:47:41;;;;;;;5.03;3.87;;;17.60;99.90;;;;;;5006313;28;20483;-88
2022/05/19 02:50:15;;;;;;;5.53;4.27;;;17.60;99.90;;;;;;5005531;28;20448;-88
2022/05/19 02:52:43;;;;;;;8.87;5.23;;;17.50;99.90;;;;;;4999224;28;20455;-87
2022/05/19 02:55:11;;;;;;;7.90;4.30;;;17.30;99.90;;;;;;4998558;28;20554;-87
2022/05/19 02:57:39;;;;;;;6.43;4.50;;;17.30;99.90;;;;;;4997577;28;20980;-87
2022/05/19 03:00:09;;;;;;;5.10;3.87;;;17.30;99.90;;;;;;4997711;28;20894;-87
2022/05/19 03:02:45;;;;;;;5.43;4.40;;;17.20;99.90;;;;;;4998303;28;20513;-87
2022/05/19 03:05:14;;;;;;;7.03;4.50;;;17.10;99.90;;;;;;4997653;28;20459;-87
2022/05/19 03:07:41;;;;;;;7.20;4.30;;;17.10;99.90;;;;;;5001423;28;20487;-87
2022/05/19 03:10:09;;;;;;;5.30;3.93;;;17.00;99.90;;;;;;4997511;28;20446;-87
2022/05/19 03:12:38;;;;;;;7.30;4.27;;;16.90;99.90;;;;;;5008342;28;20450;-87
2022/05/19 03:15:08;;;;;;;6.80;4.20;;;16.90;99.90;;;;;;5017632;28;20434;-87
2022/05/19 03:17:35;;;;;;;7.93;4.40;;;16.80;99.90;;;;;;5016694;28;20442;-87
2022/05/19 03:20:09;;;;;;;6.57;4.37;;;16.90;99.90;;;;;;5009997;28;20455;-87
2022/05/19 03:22:36;;;;;;;5.63;4.33;;;16.90;99.90;;;;;;5007220;28;20420;-87
2022/05/19 03:25:09;;;;;;;5.43;3.83;;;16.90;99.90;;;;;;4999299;28;20483;-88
2022/05/19 03:27:37;;;;;;;6.90;4.57;;;17.00;99.90;;;;;;4998710;28;20459;-87
2022/05/19 03:30:05;;;;;;;7.20;4.50;;;16.90;99.90;;;;;;5001418;28;20455;-87
2022/05/19 03:32:33;;;;;;;6.87;4.60;;;16.90;99.90;;;;;;5003313;28;20439;-87
2022/05/19 03:35:00;;;;;;;6.33;4.40;;;17.00;99.90;;;;;;4998278;28;20455;-87
2022/05/19 03:37:28;;;;;;;6.03;4.57;;;17.10;99.90;;;;;;5000331;28;20440;-88
2022/05/19 03:39:56;;;;;;;8.37;5.07;;;17.10;99.90;;;;;;5000518;28;20506;-86
2022/05/19 03:42:23;;;;;;;8.50;4.57;;;17.10;99.90;;;;;;4999209;28;20534;-87
2022/05/19 03:44:50;;;;;;;7.10;5.20;;;17.00;99.90;;;;;;5001367;28;20482;-88
2022/05/19 03:47:20;;;;;;;11.63;5.23;;;16.70;99.90;;;;;;5001933;28;20467;-88
2022/05/19 03:49:47;;;;;;;5.60;4.07;;;16.70;99.90;;;;;;5002658;28;20486;-88
2022/05/19 03:52:15;;;;;;;9.10;5.00;;;16.70;99.90;;;;;;5000700;28;20429;-88
2022/05/19 03:54:44;;;;;;;7.03;4.60;;;16.70;99.90;;;;;;5003547;28;21015;-87
2022/05/19 03:57:13;;;;;;;8.90;4.60;;;16.70;99.90;;;;;;5001028;28;20781;-88
2022/05/19 03:59:40;;;;;;;8.03;4.70;;;16.60;99.90;;;;;;4999090;28;20467;-88
2022/05/19 04:02:07;;;;;;;9.43;4.40;;;16.40;99.90;;;;;;4999402;28;20471;-87
2022/05/19 04:04:34;;;;;;;6.20;4.60;;;16.40;99.90;;;;;;5010558;23;20565;-86
2022/05/19 04:07:02;;;;;;;6.93;4.20;;;16.50;99.90;;;;;;4994692;28;20455;-87
2022/05/19 04:09:29;;;;;;;11.40;5.80;;;16.60;99.90;;;;;;4994821;28;20490;-87
2022/05/19 04:11:57;;;;;;;6.43;4.73;;;16.70;99.90;;;;;;5004542;28;20490;-86
2022/05/19 04:14:24;;;;;;;7.57;5.30;;;16.60;99.90;;;;;;5014350;28;20452;-86
2022/05/19 04:16:53;;;;;;;6.23;4.43;;;16.60;99.90;;;;;;5002284;28;20621;-87
2022/05/19 04:19:20;;;;;;;6.27;4.10;;;16.70;99.90;;;;;;4996678;28;20449;-88
2022/05/19 04:21:47;;;;;;;6.43;4.17;;;16.90;99.90;;;;;;5002177;28;20451;-87
2022/05/19 04:24:14;;;;;;;6.43;3.90;;;16.80;99.90;;;;;;5007194;28;20455;-88
2022/05/19 04:26:41;;;;;;;8.00;4.77;;;16.90;99.90;;;;;;5006670;28;20489;-88
2022/05/19 04:29:09;;;;;;;6.67;4.70;;;17.00;99.90;;;;;;5001775;28;20465;-88
2022/05/19 04:31:37;;;;;;;6.27;4.80;;;17.00;99.90;;;;;;4995400;28;20894;-88
2022/05/19 04:34:05;;;;;;;6.30;4.40;;;17.10;99.90;;;;;;4995566;28;20485;-87
2022/05/19 04:36:31;;;;;;;5.10;3.93;;;17.10;99.90;;;;;;4995893;28;20468;-86
2022/05/19 04:38:58;;;;;;;6.50;4.77;;;17.10;99.90;;;;;;5007751;28;20447;-87
2022/05/19 04:41:25;;;;;;;6.43;4.60;;;17.00;99.90;;;;;;5013667;28;20436;-88
2022/05/19 04:43:52;;;;;;;6.50;4.60;;;17.00;99.90;;;;;;5012466;28;20522;-87
2022/05/19 04:46:21;;;;;;;5.40;4.50;;;17.00;99.90;;;;;;5005634;28;20461;-87
2022/05/19 04:48:48;;;;;;;6.40;4.80;;;17.00;99.90;;;;;;5000445;28;20938;-87
2022/05/19 04:51:15;;;;;;;11.10;4.77;;;17.00;99.90;;;;;;4999243;28;20517;-87
2022/05/19 04:53:42;;;;;;;7.17;4.90;;;17.00;99.90;;;;;;4999882;28;20479;-87
2022/05/19 04:56:09;;;;;;;6.33;5.00;;;17.10;99.90;;;;;;5015287;28;20490;-86
2022/05/19 04:58:35;;;;;;;6.00;4.80;;;17.20;99.90;;;;;;5003215;28;20451;-88
2022/05/19 05:01:04;;;;;;;7.00;4.03;;;17.50;99.90;;;;;;5015510;28;20498;-88
2022/05/19 05:03:33;;;;;;;8.30;4.70;;;17.70;99.90;;;;;;5003380;28;20490;-88
2022/05/19 05:05:59;;;;;;;8.73;5.27;;;17.80;99.90;;;;;;5001432;28;20442;-88
2022/05/19 05:08:26;;;;;;;8.30;4.70;;;17.90;99.90;;;;;;5003430;28;20959;-88
2022/05/19 05:10:53;;;;;;;7.20;4.10;;;18.10;99.90;;;;;;5003255;28;20451;-88
2022/05/19 05:13:22;;;;;;;6.60;4.10;;;18.30;99.90;;;;;;5003593;28;20513;-88
2022/05/19 05:15:51;;;;;;;10.20;4.90;;;18.20;99.90;;;;;;5002487;28;20510;-88
2022/05/19 05:18:18;;;;;;;9.60;5.30;;;18.20;99.90;;;;;;5001423;28;20444;-89
2022/05/19 05:20:46;;;;;;;6.30;4.83;;;18.20;99.90;;;;;;5000467;28;20451;-89
2022/05/19 05:23:13;;;;;;;11.20;5.47;;;18.20;99.90;;;;;;5001050;28;20466;-89
2022/05/19 05:25:41;;;;;;;9.53;5.37;;;18.30;99.90;;;;;;5003169;28;20471;-89
2022/05/19 05:28:08;;;;;;;11.20;4.83;;;18.40;99.90;;;;;;5000788;28;20538;-88
2022/05/19 05:30:35;;;;;;;7.60;5.00;;;18.50;99.90;;;;;;5000484;28;20484;-89
2022/05/19 05:33:10;;;;;;;8.67;5.30;;;18.60;99.90;;;;;;5000295;28;20467;-88
2022/05/19 05:35:39;;;;;;;6.40;4.53;;;18.70;99.90;;;;;;5001936;28;20475;-88
2022/05/19 05:38:07;;;;;;;6.10;4.67;;;18.80;99.90;;;;;;5001047;28;20434;-89
2022/05/19 05:40:34;;;;;;;9.23;4.43;;;18.80;99.90;;;;;;4998557;28;20829;-89
2022/05/19 05:43:06;;;;;;;5.80;4.60;;;18.90;99.90;;;;;;4997760;28;20490;-90
2022/05/19 05:45:33;;;;;;;7.07;4.80;;;19.10;99.90;;;;;;4998246;28;20530;-89
2022/05/19 05:48:00;;;;;;;15.53;4.40;;;19.20;99.90;;;;;;4998750;28;20486;-87
2022/05/19 05:50:31;;;;;;;7.67;4.97;;;19.20;99.90;;;;;;4999872;28;20510;-88
2022/05/19 05:52:59;;;;;;;7.33;4.50;;;19.20;99.90;;;;;;5003580;28;20471;-88
2022/05/19 05:55:27;;;;;;;7.10;4.67;;;19.30;99.90;;;;;;5000617;28;20510;-87
2022/05/19 05:57:54;;;;;;;7.47;4.00;;;19.50;99.90;;;;;;5005235;28;20489;-88
2022/05/19 06:00:23;;;;;;;6.30;4.17;;;19.70;99.90;;;;;;5015253;28;20486;-88
2022/05/19 06:02:50;;;;;;;9.23;4.80;;;19.70;99.90;;;;;;4998914;28;20487;-87
2022/05/19 06:05:18;;;;;;;7.90;4.10;;;19.70;99.90;;;;;;4997246;28;20477;-88
2022/05/19 06:07:45;;;;;;;8.03;4.10;;;19.80;99.90;;;;;;5001977;28;20459;-87
2022/05/19 06:10:13;;;;;;;5.60;3.80;;;19.80;99.90;;;;;;5007273;28;20479;-87
2022/05/19 06:12:42;;;;;;;11.20;4.77;;;19.80;99.90;;;;;;4998187;28;20565;-88
2022/05/19 06:15:10;;;;;;;7.50;4.30;;;19.90;99.90;;;;;;4999174;28;20507;-88
2022/05/19 06:17:39;;;;;;;7.00;4.40;;;20.00;99.90;;;;;;4997094;28;20505;-88
2022/05/19 06:20:07;;;;;;;11.87;4.73;;;20.00;99.90;;;;;;4996372;28;20450;-88
2022/05/19 06:22:34;;;;;;;6.67;4.37;;;20.10;99.90;;;;;;4997724;28;20487;-88
2022/05/19 06:25:01;;;;;;;9.10;4.20;;;20.30;99.90;;;;;;5001593;28;20539;-88
2022/05/19 06:27:28;;;;;;;7.87;4.70;;;20.40;99.90;;;;;;5003640;28;20455;-88
2022/05/19 06:29:56;;;;;;;9.77;4.10;;;20.50;99.90;;;;;;5004819;28;20489;-88
2022/05/19 06:32:23;;;;;;;9.80;4.80;;;20.70;99.90;;;;;;5009667;28;20447;-87
2022/05/19 06:34:52;;;;;;;13.07;5.20;;;20.80;99.90;;;;;;5013728;28;20487;-88
2022/05/19 06:37:19;;;;;;;12.10;4.27;;;20.90;99.90;;;;;;5015549;28;20494;-87
2022/05/19 06:39:46;;;;;;;12.00;5.10;;;21.00;99.90;;;;;;5015082;28;20519;-87
2022/05/19 06:42:15;;;;;;;6.93;4.37;;;21.10;99.90;;;;;;5010529;28;20485;-88
2022/05/19 06:44:51;;;;;;;6.97;4.37;;;21.20;99.90;;;;;;5011426;28;20455;-88
2022/05/19 06:47:20;;;;;;;11.17;4.33;;;21.30;99.90;;;;;;5010193;28;20463;-88
2022/05/19 06:49:49;;;;;;;7.53;3.80;;;21.40;99.90;;;;;;5008576;28;20489;-88
2022/05/19 06:52:19;;;;;;;6.33;4.13;;;21.50;99.90;;;;;;5001966;28;20898;-87
2022/05/19 06:54:47;;;;;;;8.53;4.27;;;21.50;99.90;;;;;;4998189;28;20477;-88
2022/05/19 06:57:17;;;;;;;7.30;3.50;;;21.60;99.50;;;;;;5001560;28;20439;-88
2022/05/19 06:59:44;;;;;;;5.10;3.90;;;21.60;99.40;;;;;;4999962;28;20447;-88
2022/05/19 07:02:11;;;;;;;8.27;4.30;;;21.60;99.50;;;;;;5013009;28;20451;-89
2022/05/19 07:04:40;;;;;;;5.83;3.80;;;21.70;99.10;;;;;;5012431;28;20518;-88
2022/05/19 07:07:07;;;;;;;6.00;3.90;;;21.70;99.00;;;;;;5001494;28;20487;-88
2022/05/19 07:09:35;;;;;;;5.10;3.50;;;21.90;98.80;;;;;;5000149;28;20530;-87
2022/05/19 07:12:04;;;;;;;6.00;4.13;;;21.90;98.20;;;;;;4998674;28;20447;-89
2022/05/19 07:14:31;;;;;;;5.10;3.77;;;22.00;98.20;;;;;;5000085;28;20530;-89
2022/05/19 07:16:58;;;;;;;6.40;4.40;;;22.10;98.20;;;;;;5005103;28;20455;-88
2022/05/19 07:22:19;;;;;;;5.70;4.10;;;22.20;98.00;;;;;;5006093;28;20423;-89
2022/05/19 07:24:46;;;;;;;7.27;3.77;;;22.30;98.00;;;;;;5001690;28;20541;-88
2022/05/19 07:27:14;;;;;;;7.63;4.40;;;22.40;97.70;;;;;;4999237;28;20955;-88
2022/05/19 07:29:42;;;;;;;5.83;4.33;;;22.50;97.50;;;;;;4998639;28;21077;-88
2022/05/19 07:32:14;;;;;;;6.03;4.10;;;22.50;97.50;;;;;;5000086;28;20515;-87
2022/05/19 07:34:42;;;;;;;5.73;4.27;;;22.60;97.40;;;;;;5014173;28;20459;-88
2022/05/19 07:37:34;;;;;;;5.03;3.63;;;22.80;97.50;;;;;;5004944;28;20589;-89
2022/05/19 07:40:04;;;;;;;6.20;3.63;;;22.90;97.30;;;;;;5001540;28;20443;-88
2022/05/19 07:42:32;;;;;;;4.53;3.60;;;23.00;97.10;;;;;;5009644;28;20528;-89
2022/05/19 07:45:15;;;;;;;9.80;3.97;;;23.10;97.10;;;;;;5000652;28;20463;-89
2022/05/19 07:47:42;;;;;;;5.33;3.97;;;23.10;97.10;;;;;;5002769;28;20451;-89
2022/05/19 07:50:10;;;;;;;7.33;3.90;;;23.20;97.00;;;;;;5008114;28;20516;-89
2022/05/19 07:52:39;;;;;;;6.17;4.17;;;23.20;97.00;;;;;;5002507;28;20459;-89
2022/05/19 07:55:09;;;;;;;6.33;4.00;;;23.40;97.10;;;;;;5000925;28;20467;-89
2022/05/19 07:57:36;;;;;;;5.37;4.27;;;23.40;97.10;;;;;;5000001;28;20481;-89
2022/05/19 08:00:06;;;;;;;5.00;4.20;;;23.50;97.20;;;;;;5014826;28;20446;-88
2022/05/19 08:02:33;;;;;;;5.57;4.50;;;23.50;97.30;;;;;;5016593;28;20443;-88
2022/05/19 08:05:00;;;;;;;6.63;4.30;;;23.60;97.30;;;;;;5011228;28;20479;-89
2022/05/19 08:07:29;;;;;;;5.80;4.57;;;23.80;97.20;;;;;;5002337;28;20470;-88
2022/05/19 08:15:38;;;;;;;6.10;4.40;;;24.20;96.60;;;;;;5006487;28;20454;-89
2022/05/19 08:18:10;;;;;;;5.77;4.17;;;24.30;96.40;;;;;;5005747;28;20870;-88
2022/05/19 08:20:43;;;;;;;5.20;4.27;;;24.40;96.20;;;;;;5005136;28;20504;-89
2022/05/19 08:23:16;;;;;;;5.47;4.30;;;24.50;96.00;;;;;;5004745;28;20900;-89
2022/05/19 08:25:45;;;;;;;5.60;4.93;;;24.60;95.60;;;;;;5004031;28;20473;-89
2022/05/19 08:28:14;;;;;;;7.03;4.90;;;24.60;95.60;;;;;;5005764;28;20467;-89
2022/05/19 08:30:42;;;;;;;5.80;4.50;;;24.80;95.60;;;;;;5016477;28;20487;-88
2022/05/19 08:33:09;;;;;;;6.33;5.00;;;24.80;95.50;;;;;;5008300;28;20447;-87
2022/05/19 08:35:42;;;;;;;5.73;4.30;;;24.90;95.50;;;;;;5004888;28;20590;-90
2022/05/19 08:38:09;;;;;;;5.63;4.40;;;25.10;95.30;;;;;;5004911;28;20478;-89
2022/05/19 08:40:41;;;;;;;7.47;4.73;;;25.10;95.10;;;;;;5005149;28;20475;-89
2022/05/19 08:43:12;;;;;;;6.73;4.47;;;25.20;95.10;;;;;;5008548;28;20451;-89
2022/05/19 08:45:43;;;;;;;6.13;4.07;;;25.30;94.90;;;;;;5011550;28;20896;-89
2022/05/19 08:48:15;;;;;;;6.60;4.40;;;25.30;94.90;;;;;;5008391;28;20523;-89
2022/05/19 08:50:48;;;;;;;8.90;4.87;;;25.50;94.70;;;;;;5010268;28;20588;-89
2022/05/19 08:53:15;;;;;;;6.33;4.50;;;25.70;94.50;;;;;;5005132;28;20513;-89
2022/05/19 08:55:46;;;;;;;8.37;4.60;;;25.70;94.10;;;;;;5005470;28;20533;-89
2022/05/19 08:58:41;;;;;;;6.70;5.20;;;25.90;94.00;;;;;;4999841;28;20486;-87
2022/05/19 09:01:15;;;;;;;6.57;4.00;;;26.00;93.90;;;;;;5000393;28;20527;-89
2022/05/19 09:03:52;;;;;;;6.40;4.57;;;26.10;93.70;;;;;;5008199;28;21004;-87
2022/05/19 09:06:31;;;;;;;6.73;4.73;;;26.10;93.40;;;;;;5002841;28;20439;-88
2022/05/19 09:09:13;;;;;;;7.70;4.90;;;26.30;93.30;;;;;;5001174;28;20471;-87
2022/05/19 09:11:49;;;;;;;6.70;4.70;;;26.40;93.20;;;;;;5003488;28;20483;-89
2022/05/19 09:14:24;;;;;;;6.10;5.17;;;26.50;93.20;;;;;;5003285;28;20477;-88
2022/05/19 09:16:52;;;;;;;5.87;4.57;;;26.70;92.90;;;;;;5019286;28;20451;-87
2022/05/19 09:19:24;;;;;;;6.30;4.27;;;26.70;91.80;;;;;;5018272;28;20474;-86
2022/05/19 09:22:01;;;;;;;5.10;4.10;;;26.60;91.90;;;;;;5003967;28;20555;-88
2022/05/19 09:24:28;;;;;;;14.00;5.13;;;26.70;92.00;;;;;;5010789;28;20479;-87
2022/05/19 09:26:57;;;;;;;6.80;4.57;;;26.80;91.90;;;;;;5010890;28;20482;-87
2022/05/19 09:29:31;;;;;;;10.13;5.27;;;26.90;91.60;;;;;;5001162;28;20590;-88
2022/05/19 09:32:06;;;;;;;8.13;4.50;;;27.00;91.50;;;;;;5010325;28;20480;-87
2022/05/19 09:34:35;;;;;;;5.30;4.10;;;27.10;91.40;;;;;;5009657;28;20566;-87
2022/05/19 09:37:14;;;;;;;5.60;4.23;;;27.30;91.20;;;;;;5004372;28;20468;-88
2022/05/19 09:39:47;;;;;;;5.57;4.67;;;27.50;90.70;;;;;;5000237;28;20440;-88
2022/05/19 09:42:19;;;;;;;5.47;4.70;;;27.50;90.10;;;;;;4999216;28;20483;-89
2022/05/19 09:44:54;;;;;;;6.13;4.57;;;27.70;90.00;;;;;;4999695;28;20475;-89
2022/05/19 09:47:30;;;;;;;11.53;4.60;;;27.70;90.20;;;;;;4999082;28;20590;-89
2022/05/19 09:50:03;;;;;;;5.07;4.23;;;27.80;90.00;;;;;;4999284;28;20478;-89
2022/05/19 09:52:33;;;;;;;6.73;4.20;;;27.80;89.40;;;;;;5017077;28;20443;-89
2022/05/19 09:55:06;;;;;;;5.83;4.27;;;27.80;89.10;;;;;;5008213;28;20530;-89
2022/05/19 09:57:40;;;;;;;7.57;4.60;;;27.80;88.50;;;;;;5008356;28;20447;-88
2022/05/19 10:00:19;;;;;;;8.13;4.77;;;27.80;88.50;;;;;;5001976;28;20494;-88
2022/05/19 10:02:51;;;;;;;6.00;4.43;;;27.80;88.60;;;;;;5000042;28;20538;-88
2022/05/19 10:05:26;;;;;;;6.83;5.40;;;27.90;88.30;;;;;;4998883;28;20474;-88
2022/05/19 10:08:04;;;;;;;8.13;4.70;;;27.90;87.50;;;;;;4996988;28;20515;-89
2022/05/19 10:10:33;;;;;;;8.17;5.47;;;28.10;87.70;;;;;;4998825;28;20474;-88
2022/05/19 10:13:04;;;;;;;7.10;4.93;;;28.20;88.10;;;;;;4997527;28;20447;-88
2022/05/19 10:15:51;;;;;;;9.13;6.00;;;28.30;87.50;;;;;;5000613;28;20515;-88
2022/05/19 10:18:31;;;;;;;7.30;4.80;;;28.40;87.80;;;;;;5003081;28;20535;-88
2022/05/19 10:21:09;;;;;;;6.87;5.33;;;28.50;87.00;;;;;;5001240;28;20435;-88
2022/05/19 10:23:52;;;;;;;9.73;5.53;;;28.30;86.50;;;;;;5000661;28;20454;-88
2022/05/19 10:26:34;;;;;;;7.30;5.60;;;28.10;88.50;;;;;;4999104;28;20470;-89
2022/05/19 10:32:46;;;;;;;10.23;5.40;;;28.30;88.20;;;;;;5049747;22;20490;-89
2022/05/19 10:35:36;;;;;;;7.40;5.60;;;28.30;89.00;;;;;;4986454;28;20472;-88
2022/05/19 10:38:27;;;;;;;9.03;5.50;;;28.40;88.20;;;;;;4989567;28;20503;-88
2022/05/19 10:41:22;;;;;;;8.87;6.10;;;28.60;87.40;;;;;;4982127;28;20863;-89
2022/05/19 10:44:36;;;;;;;6.67;5.27;;;28.60;87.80;;;;;;4982645;28;20480;-90
2022/05/19 10:47:29;;;;;;;8.40;5.50;;;28.60;88.70;;;;;;4982936;28;20515;-90
2022/05/19 10:53:30;;;;;;;7.23;5.77;;;28.50;87.50;;;;;;4993960;28;20503;-90
2022/05/19 10:56:58;;;;;;;;;;;;;;;;;;;;;
2022/05/19 10:59:49;;;;;;;8.53;5.43;;;28.70;87.70;;;;;;4976139;28;20478;-89
2022/05/19 11:02:36;;;;;;;7.83;5.20;;;28.60;86.60;;;;;;4998511;28;20491;-88
2022/05/19 11:05:18;;;;;;;7.03;5.40;;;28.50;86.90;;;;;;4992006;28;20437;-87
2022/05/19 11:08:07;;;;;;;10.43;6.00;;;28.60;86.70;;;;;;4990316;28;20444;-89
2022/05/19 11:10:42;;;;;;;6.83;5.13;;;28.80;86.50;;;;;;4986025;28;20977;-89
2022/05/19 11:13:45;;;;;;;11.10;5.33;;;28.90;85.50;;;;;;4985258;28;20598;-89
2022/05/19 11:16:31;;;;;;;7.67;5.60;;;29.10;84.80;;;;;;4982465;28;20457;-90
2022/05/19 11:19:23;;;;;;;17.70;6.00;;;29.20;85.40;;;;;;4984402;28;20460;-89
2022/05/19 11:21:56;;;;;;;8.73;5.90;;;29.20;85.40;;;;;;4994379;28;20455;-90
2022/05/19 11:26:23;;;;;;;9.80;5.57;;;29.40;84.30;;;;;;4981536;28;20473;-89
2022/05/19 11:27:28;;;;;;;7.70;5.87;;;29.50;83.60;;;;;;4983239;28;20453;-89
2022/05/19 11:30:03;;;;;;;8.23;5.90;;;29.50;83.60;;;;;;4998603;28;20479;-88
2022/05/19 11:32:34;;;;;;;6.60;5.50;;;29.50;83.40;;;;;;4996684;28;20475;-88
2022/05/19 11:35:13;;;;;;;7.43;6.10;;;29.60;83.30;;;;;;4985385;28;20467;-89
2022/05/19 11:37:46;;;;;;;9.30;6.37;;;29.50;82.70;;;;;;4981932;28;20548;-89
2022/05/19 11:40:26;;;;;;;6.47;5.60;;;29.50;83.00;;;;;;4980439;28;20468;-90
2022/05/19 11:57:22;;;;;;;7.37;5.80;;;29.10;83.80;;;;;;4981676;28;20997;-89
2022/05/19 11:59:55;;;;;;;12.30;5.93;;;29.20;83.60;;;;;;4984267;28;20906;-89
2022/05/19 12:02:31;;;;;;;8.63;6.10;;;29.30;83.30;;;;;;4981807;28;20484;-90
2022/05/19 12:05:11;;;;;;;9.60;6.40;;;29.40;83.30;;;;;;4998041;28;20440;-88
2022/05/19 12:10:42;;;;;;;7.53;6.47;;;29.70;81.70;;;;;;4992340;28;20495;-89
2022/05/19 12:13:12;;;;;;;29.13;7.67;;;30.00;81.20;;;;;;4982040;28;20530;-89
2022/05/19 12:16:17;;;;;;;7.97;6.60;;;30.10;81.00;;;;;;4988077;28;20479;-89
2022/05/19 12:19:02;;;;;;;14.63;7.03;;;30.10;80.60;;;;;;4992798;28;20483;-88
2022/05/19 12:21:53;;;;;;;8.20;5.97;;;30.20;80.50;;;;;;4991062;28;20452;-89
2022/05/19 12:24:38;;;;;;;9.97;6.73;;;30.20;79.70;;;;;;4984742;28;20505;-90
2022/05/19 12:27:17;;;;;;;8.37;5.87;;;30.10;79.20;;;;;;4982348;28;20514;-90
2022/05/19 12:29:59;;;;;;;7.43;6.30;;;29.80;80.50;;;;;;4981269;28;20455;-89
2022/05/19 12:32:33;;;;;;;8.53;5.97;;;29.70;81.00;;;;;;4982714;28;20483;-89
2022/05/19 12:35:04;;;;;;;9.23;6.47;;;29.70;80.80;;;;;;4981305;28;20412;-90
2022/05/19 12:37:39;;;;;;;8.60;6.43;;;29.90;81.00;;;;;;4979739;28;21011;-91
2022/05/19 12:40:32;;;;;;;6.80;5.93;;;30.10;79.80;;;;;;4979681;28;20979;-89
2022/05/19 12:43:29;;;;;;;9.77;6.27;;;30.10;79.80;;;;;;4980070;28;20476;-90
2022/05/19 12:46:07;;;;;;;7.67;5.77;;;30.10;80.30;;;;;;4989839;28;20437;-90
2022/05/19 12:49:20;;;;;;;9.13;6.20;;;30.10;80.50;;;;;;4981333;28;20456;-90
2022/05/19 12:51:53;;;;;;;8.37;6.20;;;30.20;80.20;;;;;;4980928;28;20924;-91
2022/05/19 12:54:28;;;;;;;8.87;6.13;;;30.20;79.20;;;;;;4984535;28;20463;-90
2022/05/19 12:57:24;;;;;;;6.50;5.73;;;30.30;79.40;;;;;;4985557;28;20420;-90
2022/05/19 13:00:22;;;;;;;6.60;5.83;;;30.30;78.80;;;;;;4976653;28;20451;-89
2022/05/19 13:03:08;;;;;;;6.50;5.80;;;30.40;78.60;;;;;;4982318;28;20544;-90
2022/05/19 13:05:47;;;;;;;8.63;6.67;;;30.50;78.00;;;;;;4986536;28;20608;-91
2022/05/19 13:08:39;;;;;;;11.70;6.40;;;30.30;78.70;;;;;;4995340;28;20468;-88
2022/05/19 13:11:13;;;;;;;7.60;6.17;;;30.20;78.70;;;;;;4994151;28;20855;-90
2022/05/19 13:13:42;;;;;;;6.97;6.07;;;30.30;78.70;;;;;;4986004;28;20580;-90
2022/05/19 13:16:21;;;;;;;9.47;6.63;;;30.30;77.80;;;;;;4992747;28;20590;-89
2022/05/19 13:19:10;;;;;;;7.20;6.30;;;30.40;77.80;;;;;;5001098;28;20460;-91
2022/05/19 13:21:47;;;;;;;8.53;6.10;;;30.60;77.70;;;;;;4993178;28;20471;-90
2022/05/19 13:24:34;;;;;;;7.13;5.60;;;30.70;76.50;;;;;;4986173;28;20486;-89
2022/05/19 13:34:37;;;;;;;8.80;5.80;;;31.30;71.40;;;;;;4986112;28;20494;-90
2022/05/19 13:59:51;;;;;;;8.77;6.07;;;31.00;73.50;;;;;;5074851;22;20502;-89
2022/05/19 14:03:02;;;;;;;;;;;;;;;;;;;;;
2022/05/19 15:56:26;;;;;;;8.50;6.50;;;33.20;65.40;;;;;;3266712;26;20542;-88
2022/05/19 16:36:14;;;;;;;10.27;6.70;;;31.80;67.00;;;;;;4953872;22;20612;-87
2022/05/19 16:38:43;;;;;;;8.83;6.13;;;31.80;67.20;;;;;;5017823;28;20473;-88
2022/05/19 16:41:10;;;;;;;9.03;6.00;;;31.80;66.10;;;;;;5004105;28;20478;-88
2022/05/19 16:43:37;;;;;;;10.13;6.03;;;31.70;66.20;;;;;;5002797;28;20467;-88
2022/05/19 16:46:04;;;;;;;10.60;5.90;;;31.60;66.30;;;;;;5000761;28;20561;-87
2022/05/19 16:48:35;;;;;;;9.53;5.40;;;31.50;66.40;;;;;;5001467;28;20975;-87
2022/05/19 16:51:02;;;;;;;9.97;6.57;;;31.40;66.20;;;;;;5013278;28;20455;-87
2022/05/19 16:53:30;;;;;;;8.93;5.80;;;31.40;66.20;;;;;;5011741;28;20450;-88
2022/05/19 16:58:41;;;;;;;9.90;4.60;;;31.10;66.40;;;;;;5001879;28;20426;-88
2022/05/19 17:01:09;;;;;;;7.73;6.40;;;30.90;66.90;;;;;;5015802;28;20467;-88
2022/05/19 17:03:36;;;;;;;9.80;7.17;;;30.90;67.50;;;;;;5015511;28;20510;-88